createdAt,value
2022-12-31T00:02:09.619Z,13.47
2022-12-31T00:04:37.872Z,13.50
2022-12-31T00:07:05.883Z,13.34
2022-12-31T00:09:34.044Z,13.23
2022-12-31T00:12:03.350Z,13.28
2022-12-31T00:14:31.582Z,13.30
2022-12-31T00:16:59.558Z,13.09
2022-12-31T00:19:27.775Z,13.00
2022-12-31T00:21:55.699Z,12.94
2022-12-31T00:24:23.891Z,12.92
2022-12-31T00:26:51.803Z,12.82
2022-12-31T00:29:21.283Z,12.76
2022-12-31T00:31:49.254Z,12.79
2022-12-31T00:34:17.431Z,12.79
2022-12-31T00:36:46.050Z,12.74
2022-12-31T00:39:14.367Z,12.68
2022-12-31T00:41:43.901Z,12.69
2022-12-31T00:44:12.951Z,12.63
2022-12-31T00:49:10.368Z,12.69
2022-12-31T00:51:38.351Z,12.64
2022-12-31T00:54:06.726Z,12.69
2022-12-31T00:56:34.631Z,12.71
2022-12-31T00:59:02.842Z,12.69
2022-12-31T01:01:32.493Z,12.71
2022-12-31T01:04:04.607Z,12.74
2022-12-31T01:06:32.667Z,12.80
2022-12-31T01:09:01.110Z,12.82
2022-12-31T01:11:29.947Z,12.86
2022-12-31T01:14:00.181Z,12.85
2022-12-31T01:16:31.824Z,12.96
2022-12-31T01:19:02.605Z,12.97
2022-12-31T01:21:31.245Z,13.03
2022-12-31T01:23:59.500Z,13.04
2022-12-31T01:26:28.232Z,13.13
2022-12-31T01:28:56.451Z,13.16
2022-12-31T01:31:25.250Z,13.19
2022-12-31T01:33:53.791Z,13.23
2022-12-31T01:36:26.340Z,13.35
2022-12-31T01:38:55.169Z,13.36
2022-12-31T01:41:25.275Z,13.37
2022-12-31T01:43:55.541Z,13.44
2022-12-31T01:46:28.351Z,13.43
2022-12-31T01:48:59.091Z,13.43
2022-12-31T01:51:30.812Z,13.42
2022-12-31T01:54:00.182Z,13.46
2022-12-31T01:56:28.174Z,13.55
2022-12-31T01:58:57.604Z,13.55
2022-12-31T02:01:27.746Z,13.66
2022-12-31T02:03:57.712Z,13.67
2022-12-31T02:06:30.364Z,13.70
2022-12-31T02:08:59.012Z,13.75
2022-12-31T02:11:29.064Z,13.75
2022-12-31T02:14:00.353Z,13.74
2022-12-31T02:16:35.600Z,13.84
2022-12-31T02:19:18.354Z,13.86
2022-12-31T02:21:55.003Z,13.85
2022-12-31T02:25:00.632Z,13.94
2022-12-31T02:27:39.106Z,13.91
2022-12-31T02:30:11.739Z,13.93
2022-12-31T02:32:51.793Z,13.91
2022-12-31T02:35:23.373Z,13.95
2022-12-31T02:37:54.146Z,13.86
2022-12-31T02:40:23.510Z,13.87
2022-12-31T02:42:55.370Z,13.86
2022-12-31T02:45:29.915Z,13.96
2022-12-31T02:48:08.024Z,14.02
2022-12-31T02:50:41.949Z,14.03
2022-12-31T02:53:19.957Z,14.00
2022-12-31T02:55:54.129Z,14.03
2022-12-31T02:58:46.019Z,13.97
2022-12-31T03:01:35.703Z,14.07
2022-12-31T03:04:25.733Z,14.18
2022-12-31T03:06:54.469Z,14.20
2022-12-31T03:09:22.528Z,14.23
2022-12-31T03:12:08.221Z,14.23
2022-12-31T03:14:36.130Z,14.24
2022-12-31T03:17:05.694Z,14.17
2022-12-31T03:19:51.061Z,14.22
2022-12-31T03:22:28.500Z,14.12
2022-12-31T03:25:16.928Z,14.17
2022-12-31T03:27:46.871Z,14.20
2022-12-31T03:30:15.836Z,14.18
2022-12-31T03:32:46.697Z,14.18
2022-12-31T03:35:16.728Z,14.18
2022-12-31T03:37:44.979Z,14.16
2022-12-31T03:40:14.560Z,14.13
2022-12-31T03:42:42.777Z,14.14
2022-12-31T03:45:12.230Z,14.21
2022-12-31T03:47:40.435Z,14.23
2022-12-31T03:50:12.185Z,14.22
2022-12-31T03:52:40.575Z,14.22
2022-12-31T03:55:10.155Z,14.24
2022-12-31T03:57:38.454Z,14.13
2022-12-31T04:00:08.137Z,14.15
2022-12-31T04:02:36.481Z,14.13
2022-12-31T04:05:04.883Z,14.07
2022-12-31T04:07:34.504Z,14.09
2022-12-31T04:10:02.851Z,14.07
2022-12-31T04:12:31.028Z,14.09
2022-12-31T04:14:59.335Z,14.10
2022-12-31T04:17:27.833Z,14.16
2022-12-31T04:19:55.786Z,14.15
2022-12-31T04:22:23.992Z,14.14
2022-12-31T04:24:53.305Z,14.14
2022-12-31T04:27:21.504Z,14.15
2022-12-31T04:29:49.403Z,14.18
2022-12-31T04:32:17.216Z,14.14
2022-12-31T04:34:45.415Z,14.17
2022-12-31T04:37:13.401Z,14.21
2022-12-31T04:39:41.572Z,14.23
2022-12-31T04:42:10.939Z,14.24
2022-12-31T04:44:39.039Z,14.26
2022-12-31T04:47:06.950Z,14.29
2022-12-31T04:49:35.133Z,14.30
2022-12-31T04:52:08.830Z,14.31
2022-12-31T04:54:37.014Z,14.32
2022-12-31T04:57:06.312Z,14.37
2022-12-31T04:59:35.802Z,14.33
2022-12-31T05:02:03.950Z,14.32
2022-12-31T05:04:32.446Z,14.33
2022-12-31T05:07:00.432Z,14.31
2022-12-31T05:09:28.638Z,14.38
2022-12-31T05:11:56.629Z,14.40
2022-12-31T05:14:24.879Z,14.42
2022-12-31T05:16:54.540Z,14.47
2022-12-31T05:19:22.831Z,14.47
2022-12-31T05:22:04.691Z,14.47
2022-12-31T05:24:33.169Z,14.51
2022-12-31T05:27:01.051Z,14.51
2022-12-31T05:29:29.301Z,14.49
2022-12-31T05:31:58.560Z,14.53
2022-12-31T05:34:26.702Z,14.56
2022-12-31T05:36:54.599Z,14.59
2022-12-31T05:39:22.772Z,14.60
2022-12-31T05:41:50.652Z,14.62
2022-12-31T05:44:18.986Z,14.71
2022-12-31T05:46:47.026Z,14.75
2022-12-31T05:49:16.936Z,14.78
2022-12-31T05:51:44.893Z,14.73
2022-12-31T05:54:13.116Z,14.77
2022-12-31T05:56:41.237Z,14.88
2022-12-31T05:59:09.362Z,14.91
2022-12-31T06:01:37.262Z,14.91
2022-12-31T06:04:05.996Z,14.98
2022-12-31T06:06:35.297Z,14.93
2022-12-31T06:09:03.623Z,14.91
2022-12-31T06:11:31.609Z,14.91
2022-12-31T06:13:59.806Z,14.93
2022-12-31T06:16:27.994Z,14.95
2022-12-31T06:18:56.314Z,15.01
2022-12-31T06:21:24.214Z,14.96
2022-12-31T06:23:53.702Z,15.02
2022-12-31T06:26:21.960Z,15.02
2022-12-31T06:28:50.177Z,15.02
2022-12-31T06:31:18.127Z,15.02
2022-12-31T06:33:46.843Z,15.01
2022-12-31T06:36:16.518Z,14.98
2022-12-31T06:38:45.474Z,15.04
2022-12-31T06:41:16.281Z,14.99
2022-12-31T06:43:44.495Z,15.07
2022-12-31T06:46:15.795Z,15.09
2022-12-31T06:48:44.903Z,15.18
2022-12-31T06:51:17.251Z,15.22
2022-12-31T06:53:46.333Z,15.21
2022-12-31T06:56:18.408Z,15.31
2022-12-31T06:58:47.260Z,15.39
2022-12-31T07:01:30.122Z,15.45
2022-12-31T07:04:02.388Z,15.36
2022-12-31T07:06:34.589Z,15.26
2022-12-31T07:09:08.226Z,15.24
2022-12-31T07:11:43.124Z,15.17
2022-12-31T07:14:21.898Z,15.11
2022-12-31T07:16:57.501Z,15.01
2022-12-31T07:19:34.266Z,14.98
2022-12-31T07:22:03.840Z,14.92
2022-12-31T07:24:32.484Z,14.91
2022-12-31T07:27:19.375Z,14.90
2022-12-31T07:30:00.250Z,14.91
2022-12-31T07:32:41.499Z,14.93
2022-12-31T07:35:13.588Z,14.95
2022-12-31T07:37:46.947Z,14.91
2022-12-31T07:40:18.898Z,14.86
2022-12-31T07:43:01.771Z,14.78
2022-12-31T07:45:34.572Z,14.68
2022-12-31T07:48:03.282Z,14.78
2022-12-31T07:50:32.216Z,14.88
2022-12-31T07:53:00.618Z,14.90
2022-12-31T07:55:29.320Z,14.96
2022-12-31T07:58:03.542Z,14.86
2022-12-31T08:00:32.218Z,14.89
2022-12-31T08:03:11.433Z,14.84
2022-12-31T08:05:45.393Z,14.77
2022-12-31T08:08:23.618Z,14.84
2022-12-31T08:11:00.959Z,14.89
2022-12-31T08:13:30.573Z,14.87
2022-12-31T08:15:59.086Z,14.90
2022-12-31T08:18:27.517Z,14.94
2022-12-31T08:21:00.370Z,14.96
2022-12-31T08:23:33.792Z,14.91
2022-12-31T08:26:13.861Z,14.89
2022-12-31T08:28:55.491Z,14.90
2022-12-31T08:31:26.991Z,14.96
2022-12-31T08:34:03.872Z,14.93
2022-12-31T08:36:41.230Z,14.95
2022-12-31T08:39:17.303Z,14.93
2022-12-31T08:41:46.920Z,14.98
2022-12-31T08:44:23.336Z,14.99
2022-12-31T08:46:58.171Z,14.99
2022-12-31T08:49:27.510Z,15.06
2022-12-31T08:51:56.391Z,15.05
2022-12-31T08:54:25.005Z,15.15
2022-12-31T08:57:06.340Z,15.16
2022-12-31T08:59:40.594Z,15.15
2022-12-31T09:02:27.562Z,15.20
2022-12-31T09:05:01.257Z,15.12
2022-12-31T09:07:35.308Z,15.09
2022-12-31T09:10:10.398Z,15.09
2022-12-31T09:12:42.615Z,15.07
2022-12-31T09:15:16.423Z,15.09
2022-12-31T09:17:46.132Z,15.24
2022-12-31T09:20:17.220Z,15.27
2022-12-31T09:22:45.767Z,15.21
2022-12-31T09:25:15.892Z,15.18
2022-12-31T09:27:47.519Z,15.21
2022-12-31T09:30:17.682Z,15.20
2022-12-31T09:32:56.850Z,15.20
2022-12-31T09:35:35.425Z,15.27
2022-12-31T09:38:11.272Z,15.28
2022-12-31T09:41:14.374Z,15.32
2022-12-31T09:44:17.916Z,15.41
2022-12-31T09:47:33.060Z,15.47
2022-12-31T09:50:28.083Z,15.53
2022-12-31T09:53:12.356Z,15.60
2022-12-31T09:55:45.823Z,15.62
2022-12-31T09:58:24.712Z,15.68
2022-12-31T10:00:54.532Z,15.71
2022-12-31T10:03:41.844Z,15.75
2022-12-31T10:06:21.215Z,15.80
2022-12-31T10:09:04.015Z,15.87
2022-12-31T10:11:44.524Z,15.91
2022-12-31T10:14:26.969Z,15.95
2022-12-31T10:17:02.345Z,15.92
2022-12-31T10:19:52.832Z,15.93
2022-12-31T10:22:40.961Z,16.02
2022-12-31T10:25:39.394Z,16.07
2022-12-31T10:28:15.821Z,16.16
2022-12-31T10:30:50.168Z,16.34
2022-12-31T10:33:26.606Z,16.42
2022-12-31T10:36:00.707Z,16.56
2022-12-31T10:38:34.937Z,16.67
2022-12-31T10:41:48.655Z,16.82
2022-12-31T10:44:49.893Z,16.92
2022-12-31T10:47:43.220Z,17.02
2022-12-31T10:50:26.641Z,17.12
2022-12-31T10:53:22.753Z,17.21
2022-12-31T10:56:23.513Z,17.30
2022-12-31T10:59:08.458Z,17.42
2022-12-31T11:01:46.045Z,17.54
2022-12-31T11:04:53.168Z,17.64
2022-12-31T11:07:48.578Z,17.73
2022-12-31T11:10:49.800Z,17.79
2022-12-31T11:14:03.177Z,17.99
2022-12-31T11:16:42.466Z,17.95
2022-12-31T11:19:17.779Z,18.02
2022-12-31T11:21:58.403Z,18.09
2022-12-31T11:24:39.619Z,18.21
2022-12-31T11:27:18.555Z,18.33
2022-12-31T11:29:58.004Z,18.45
2022-12-31T11:32:37.201Z,18.56
2022-12-31T11:35:16.605Z,18.68
2022-12-31T11:37:48.040Z,18.86
2022-12-31T11:40:35.345Z,19.00
2022-12-31T11:43:12.598Z,19.09
2022-12-31T11:45:53.789Z,19.49
2022-12-31T11:48:32.660Z,19.89
2022-12-31T11:51:15.264Z,19.78
2022-12-31T11:54:08.313Z,20.21
2022-12-31T11:56:38.851Z,19.65
2022-12-31T11:59:18.653Z,20.10
2022-12-31T12:01:53.854Z,20.20
2022-12-31T12:04:21.862Z,20.01
2022-12-31T12:06:50.020Z,19.98
2022-12-31T12:09:23.465Z,19.96
2022-12-31T12:11:59.964Z,19.74
2022-12-31T12:14:35.238Z,19.83
2022-12-31T12:17:05.720Z,19.73
2022-12-31T12:19:35.686Z,20.50
2022-12-31T12:22:12.043Z,20.37
2022-12-31T12:24:40.559Z,20.53
2022-12-31T12:27:21.867Z,20.22
2022-12-31T12:29:51.512Z,20.66
2022-12-31T12:32:21.052Z,20.64
2022-12-31T12:34:50.142Z,20.91
2022-12-31T12:37:30.059Z,20.59
2022-12-31T12:39:59.236Z,20.89
2022-12-31T12:42:27.769Z,20.96
2022-12-31T12:45:05.134Z,21.63
2022-12-31T12:47:34.083Z,21.79
2022-12-31T12:50:02.117Z,22.16
2022-12-31T12:52:41.329Z,22.02
2022-12-31T12:55:18.424Z,21.58
2022-12-31T12:57:50.535Z,22.05
2022-12-31T13:00:21.634Z,21.51
2022-12-31T13:03:19.201Z,21.93
2022-12-31T13:06:06.472Z,20.77
2022-12-31T13:08:48.190Z,20.71
2022-12-31T13:11:26.820Z,20.73
2022-12-31T13:14:00.262Z,20.52
2022-12-31T13:16:35.971Z,20.80
2022-12-31T13:19:10.007Z,20.76
2022-12-31T13:21:42.827Z,20.66
2022-12-31T13:24:19.651Z,20.45
2022-12-31T13:26:53.446Z,20.00
2022-12-31T13:29:25.257Z,19.87
2022-12-31T13:31:55.877Z,19.96
2022-12-31T13:34:29.002Z,19.89
2022-12-31T13:37:00.349Z,19.62
2022-12-31T13:39:30.548Z,19.48
2022-12-31T13:42:02.218Z,19.34
2022-12-31T13:44:32.488Z,19.21
2022-12-31T13:47:05.559Z,19.14
2022-12-31T13:49:39.294Z,19.14
2022-12-31T13:52:19.855Z,19.06
2022-12-31T13:54:55.595Z,18.88
2022-12-31T13:57:33.895Z,18.97
2022-12-31T14:00:05.722Z,18.83
2022-12-31T14:02:45.363Z,18.70
2022-12-31T14:05:18.549Z,18.83
2022-12-31T14:07:50.254Z,18.78
2022-12-31T14:10:21.747Z,18.79
2022-12-31T14:12:54.999Z,18.63
2022-12-31T14:15:25.268Z,18.61
2022-12-31T14:18:01.515Z,18.60
2022-12-31T14:20:35.272Z,18.61
2022-12-31T14:23:07.812Z,18.69
2022-12-31T14:25:38.664Z,18.77
2022-12-31T14:28:08.235Z,18.65
2022-12-31T14:30:38.972Z,18.69
2022-12-31T14:33:24.234Z,18.61
2022-12-31T14:36:10.958Z,18.40
2022-12-31T14:38:48.570Z,18.42
2022-12-31T14:41:27.571Z,18.17
2022-12-31T14:44:01.881Z,18.16
2022-12-31T14:46:36.955Z,18.06
2022-12-31T14:49:23.222Z,17.94
2022-12-31T14:51:51.578Z,17.87
2022-12-31T14:54:29.025Z,17.77
2022-12-31T14:56:57.430Z,17.73
2022-12-31T14:59:27.715Z,17.62
2022-12-31T15:01:56.724Z,17.41
2022-12-31T15:04:43.479Z,17.34
2022-12-31T15:07:17.394Z,17.27
2022-12-31T15:09:52.415Z,17.23
2022-12-31T15:12:28.821Z,17.15
2022-12-31T15:15:33.189Z,17.16
2022-12-31T15:18:12.152Z,17.05
2022-12-31T15:20:50.588Z,17.01
2022-12-31T15:23:22.458Z,16.96
2022-12-31T15:25:54.138Z,16.87
2022-12-31T15:28:30.587Z,16.80
2022-12-31T15:31:03.133Z,16.79
2022-12-31T15:33:33.978Z,16.81
2022-12-31T15:36:14.781Z,16.77
2022-12-31T15:38:43.319Z,16.74
2022-12-31T15:41:27.625Z,16.74
2022-12-31T15:43:58.964Z,16.67
2022-12-31T15:46:30.088Z,16.62
2022-12-31T15:49:05.146Z,16.59
2022-12-31T15:51:44.397Z,16.57
2022-12-31T15:54:23.751Z,16.57
2022-12-31T15:56:53.178Z,16.50
2022-12-31T15:59:22.701Z,16.44
2022-12-31T16:01:51.029Z,16.43
2022-12-31T16:04:21.856Z,16.37
2022-12-31T16:06:51.529Z,16.41
2022-12-31T16:09:22.753Z,16.36
2022-12-31T16:11:51.830Z,16.36
2022-12-31T16:14:23.702Z,16.30
2022-12-31T16:16:54.027Z,16.29
2022-12-31T16:19:32.817Z,16.23
2022-12-31T16:22:08.077Z,16.21
2022-12-31T16:24:48.903Z,16.20
2022-12-31T16:27:25.935Z,16.21
2022-12-31T16:29:59.602Z,16.13
2022-12-31T16:32:27.804Z,16.17
2022-12-31T16:34:55.905Z,16.12
2022-12-31T16:37:25.171Z,16.14
2022-12-31T16:40:18.895Z,16.13
2022-12-31T16:42:47.831Z,16.10
2022-12-31T16:45:30.081Z,16.07
2022-12-31T16:47:58.576Z,16.06
2022-12-31T16:50:26.854Z,16.04
2022-12-31T16:53:00.945Z,16.00
2022-12-31T16:55:30.469Z,16.04
2022-12-31T16:58:00.941Z,16.05
2022-12-31T17:00:29.309Z,16.03
2022-12-31T17:03:05.021Z,16.08
2022-12-31T17:05:35.117Z,16.01
2022-12-31T17:08:24.731Z,16.01
2022-12-31T17:10:52.966Z,16.02
2022-12-31T17:13:30.806Z,16.06
2022-12-31T17:15:59.744Z,15.99
2022-12-31T17:18:30.185Z,15.97
2022-12-31T17:21:06.854Z,15.95
2022-12-31T17:23:37.900Z,15.94
2022-12-31T17:26:10.724Z,15.98
2022-12-31T17:28:43.376Z,15.94
2022-12-31T17:31:30.867Z,15.91
2022-12-31T17:34:07.651Z,15.91
2022-12-31T17:36:36.034Z,15.90
2022-12-31T17:39:18.516Z,15.88
2022-12-31T17:41:47.759Z,15.90
2022-12-31T17:44:18.863Z,15.89
2022-12-31T17:46:47.252Z,15.88
2022-12-31T17:49:15.237Z,15.83
2022-12-31T17:51:47.537Z,15.85
2022-12-31T17:54:18.257Z,15.76
2022-12-31T17:56:47.021Z,15.73
2022-12-31T17:59:17.095Z,15.72
2022-12-31T18:01:45.761Z,15.65
2022-12-31T18:04:14.699Z,15.65
2022-12-31T18:06:43.273Z,15.67
2022-12-31T18:09:11.262Z,15.59
2022-12-31T18:11:41.387Z,15.60
2022-12-31T18:14:09.358Z,15.55
2022-12-31T18:16:37.908Z,15.52
2022-12-31T18:19:23.465Z,15.49
2022-12-31T18:22:00.670Z,15.47
2022-12-31T18:24:28.616Z,15.44
2022-12-31T18:26:58.135Z,15.47
2022-12-31T18:29:26.150Z,15.42
2022-12-31T18:31:54.484Z,15.38
2022-12-31T18:34:22.457Z,15.38
2022-12-31T18:36:50.585Z,15.41
2022-12-31T18:39:18.482Z,15.39
2022-12-31T18:41:49.367Z,15.44
2022-12-31T18:44:18.778Z,15.45
2022-12-31T18:46:46.967Z,15.52
2022-12-31T18:49:14.882Z,15.56
2022-12-31T18:51:43.088Z,15.64
2022-12-31T18:54:11.928Z,15.63
2022-12-31T18:56:46.499Z,15.64
2022-12-31T18:59:15.703Z,15.59
2022-12-31T19:01:45.356Z,15.57
2022-12-31T19:04:14.778Z,15.48
2022-12-31T19:06:43.786Z,15.50
2022-12-31T19:09:30.635Z,15.54
2022-12-31T19:12:00.920Z,15.43
2022-12-31T19:14:29.017Z,15.38
2022-12-31T19:19:26.641Z,15.41
2022-12-31T19:21:55.047Z,15.36
2022-12-31T19:24:26.423Z,15.33
2022-12-31T19:26:55.005Z,15.30
2022-12-31T19:29:24.566Z,15.28
2022-12-31T19:31:53.061Z,15.28
2022-12-31T19:34:22.509Z,15.28
2022-12-31T19:36:50.684Z,15.22
2022-12-31T19:39:20.412Z,15.18
2022-12-31T19:41:56.567Z,15.18
2022-12-31T19:44:26.956Z,15.21
2022-12-31T19:46:55.256Z,15.24
2022-12-31T19:49:24.551Z,15.23
2022-12-31T19:51:52.772Z,15.21
2022-12-31T19:54:20.741Z,15.26
2022-12-31T19:56:48.963Z,15.31
2022-12-31T19:59:16.859Z,15.30
2022-12-31T20:01:45.222Z,15.27
2022-12-31T20:04:13.276Z,15.24
2022-12-31T20:06:42.764Z,15.28
2022-12-31T20:09:12.125Z,15.16
2022-12-31T20:11:40.282Z,15.17
2022-12-31T20:14:08.292Z,15.06
2022-12-31T20:16:36.603Z,15.06
2022-12-31T20:19:05.927Z,15.05
2022-12-31T20:21:34.275Z,15.02
2022-12-31T20:24:03.581Z,14.97
2022-12-31T20:26:31.844Z,15.07
2022-12-31T20:28:59.737Z,15.06
2022-12-31T20:31:27.904Z,15.03
2022-12-31T20:33:56.119Z,15.02
2022-12-31T20:36:25.737Z,14.91
2022-12-31T20:38:53.783Z,14.90
2022-12-31T20:41:23.862Z,14.91
2022-12-31T20:43:52.211Z,14.88
2022-12-31T20:46:21.928Z,14.85
2022-12-31T20:48:52.067Z,14.85
2022-12-31T20:51:21.757Z,14.83
2022-12-31T20:53:51.562Z,14.88
2022-12-31T20:56:19.866Z,14.82
2022-12-31T20:58:49.326Z,14.87
2022-12-31T21:01:18.186Z,14.86
2022-12-31T21:04:04.766Z,14.74
2022-12-31T21:06:34.762Z,14.74
2022-12-31T21:09:05.225Z,14.65
2022-12-31T21:11:51.051Z,14.62
2022-12-31T21:14:20.339Z,14.60
2022-12-31T21:16:48.801Z,14.61
2022-12-31T21:19:16.744Z,14.55
2022-12-31T21:21:45.052Z,14.59
2022-12-31T21:24:17.479Z,14.56
2022-12-31T21:26:51.239Z,14.54
2022-12-31T21:29:20.547Z,14.58
2022-12-31T21:31:48.735Z,14.53
2022-12-31T21:34:16.735Z,14.56
2022-12-31T21:36:45.024Z,14.50
2022-12-31T21:39:12.983Z,14.55
2022-12-31T21:41:53.306Z,14.51
2022-12-31T21:44:24.510Z,14.51
2022-12-31T21:47:33.325Z,14.55
2022-12-31T21:49:43.719Z,14.52
2022-12-31T21:52:26.936Z,14.53
2022-12-31T21:55:12.894Z,14.47
2022-12-31T21:58:15.671Z,14.52
2022-12-31T22:00:48.533Z,14.52
2022-12-31T22:03:27.425Z,14.51
2022-12-31T22:05:57.987Z,14.45
2022-12-31T22:08:26.630Z,14.42
2022-12-31T22:10:54.975Z,14.40
2022-12-31T22:13:24.139Z,14.36
2022-12-31T22:16:01.801Z,14.35
2022-12-31T22:18:35.320Z,14.30
2022-12-31T22:21:05.388Z,14.26
2022-12-31T22:23:34.999Z,14.23
2022-12-31T22:26:03.484Z,14.15
2022-12-31T22:28:40.151Z,14.09
2022-12-31T22:31:10.644Z,14.06
2022-12-31T22:33:38.850Z,14.06
2022-12-31T22:36:09.051Z,14.03
2022-12-31T22:38:37.488Z,14.09
2022-12-31T22:41:07.603Z,14.03
2022-12-31T22:43:37.195Z,14.00
2022-12-31T22:46:11.936Z,13.94
2022-12-31T22:48:40.933Z,13.93
2022-12-31T22:51:10.162Z,13.94
2022-12-31T22:53:39.618Z,13.92
2022-12-31T22:56:08.176Z,13.88
2022-12-31T22:58:38.010Z,13.84
2022-12-31T23:01:07.014Z,13.90
2022-12-31T23:03:36.671Z,13.89
2022-12-31T23:06:04.949Z,13.86
2022-12-31T23:08:33.626Z,13.86
2022-12-31T23:11:00.736Z,13.82
2022-12-31T23:13:50.545Z,13.87
2022-12-31T23:16:37.489Z,13.81
2022-12-31T23:19:25.335Z,13.72
2022-12-31T23:22:10.936Z,13.71
2022-12-31T23:24:39.623Z,13.56
2022-12-31T23:27:08.216Z,13.58
2022-12-31T23:29:45.523Z,13.55
2022-12-31T23:32:15.040Z,13.51
2022-12-31T23:34:45.462Z,13.53
2022-12-31T23:37:14.133Z,13.55
2022-12-31T23:39:42.697Z,13.50
2022-12-31T23:42:10.609Z,13.53
2022-12-31T23:44:38.907Z,13.51
2022-12-31T23:47:06.951Z,13.60
2022-12-31T23:49:35.191Z,13.67
2022-12-31T23:52:04.685Z,13.70
2022-12-31T23:54:32.885Z,13.76
2022-12-31T23:57:00.904Z,13.79
2022-12-31T23:59:29.184Z,13.83
